createdAt,value
2022-10-10T00:00:06.351Z,4.15
2022-10-10T00:02:33.573Z,3.63
2022-10-10T00:05:01.440Z,4.07
2022-10-10T00:07:28.640Z,2.53
2022-10-10T00:09:55.925Z,3.53
2022-10-10T00:12:23.093Z,5.15
2022-10-10T00:14:50.234Z,3.40
2022-10-10T00:17:17.414Z,3.90
2022-10-10T00:19:44.596Z,4.07
2022-10-10T00:22:11.579Z,7.82
2022-10-10T00:24:38.691Z,3.17
2022-10-10T00:27:05.802Z,3.60
2022-10-10T00:29:33.077Z,6.55
2022-10-10T00:32:00.310Z,2.67
2022-10-10T00:34:27.370Z,3.38
2022-10-10T00:36:54.372Z,6.63
2022-10-10T00:39:21.578Z,3.22
2022-10-10T00:41:48.790Z,5.65
2022-10-10T00:44:16.079Z,3.40
2022-10-10T00:46:43.298Z,3.58
2022-10-10T00:49:17.828Z,3.40
2022-10-10T00:51:47.658Z,2.60
2022-10-10T00:54:18.195Z,2.65
2022-10-10T00:56:51.432Z,3.50
2022-10-10T00:59:20.138Z,2.88
2022-10-10T01:01:47.531Z,5.00
2022-10-10T01:04:45.456Z,4.68
2022-10-10T01:07:28.903Z,3.45
2022-10-10T01:10:02.939Z,4.15
2022-10-10T01:12:39.134Z,4.28
2022-10-10T01:15:16.083Z,2.47
2022-10-10T01:17:57.310Z,3.00
2022-10-10T01:20:43.913Z,4.65
2022-10-10T01:23:32.883Z,5.85
2022-10-10T01:26:43.791Z,3.47
2022-10-10T01:29:26.708Z,3.72
2022-10-10T01:31:57.132Z,3.70
2022-10-10T01:34:41.903Z,4.70
2022-10-10T01:37:14.968Z,3.03
2022-10-10T01:40:05.170Z,2.63
2022-10-10T01:42:48.087Z,2.45
2022-10-10T01:45:15.450Z,3.33
2022-10-10T01:47:42.968Z,3.58
2022-10-10T01:50:16.322Z,3.35
2022-10-10T01:53:00.347Z,5.43
2022-10-10T01:56:00.780Z,5.60
2022-10-10T01:58:53.807Z,7.35
2022-10-10T02:01:41.589Z,3.05
2022-10-10T02:04:32.112Z,4.35
2022-10-10T02:07:33.785Z,2.38
2022-10-10T02:10:03.726Z,3.22
2022-10-10T02:12:32.124Z,3.40
2022-10-10T02:15:09.834Z,6.90
2022-10-10T02:17:39.115Z,3.65
2022-10-10T02:20:08.435Z,4.35
2022-10-10T02:22:37.138Z,7.88
2022-10-10T02:25:04.775Z,3.50
2022-10-10T02:27:44.735Z,3.80
2022-10-10T02:30:13.344Z,4.30
2022-10-10T02:32:47.888Z,3.45
2022-10-10T02:35:24.254Z,3.90
2022-10-10T02:37:53.424Z,4.85
2022-10-10T02:40:27.649Z,3.30
2022-10-10T02:42:57.550Z,3.58
2022-10-10T02:45:24.910Z,3.70
2022-10-10T02:47:52.676Z,4.93
2022-10-10T02:50:19.954Z,3.65
2022-10-10T02:52:47.358Z,7.72
2022-10-10T02:55:14.658Z,3.72
2022-10-10T02:57:41.768Z,4.03
2022-10-10T03:00:09.507Z,5.00
2022-10-10T03:02:36.727Z,3.33
2022-10-10T03:05:05.791Z,3.30
2022-10-10T03:07:33.490Z,6.15
2022-10-10T03:10:00.901Z,5.70
2022-10-10T03:12:28.127Z,4.93
2022-10-10T03:14:55.299Z,4.93
2022-10-10T03:17:22.535Z,3.22
2022-10-10T03:19:49.679Z,3.40
2022-10-10T03:22:17.297Z,4.13
2022-10-10T03:24:44.499Z,6.82
2022-10-10T03:27:11.692Z,5.05
2022-10-10T03:29:38.849Z,5.57
2022-10-10T03:32:10.194Z,5.10
2022-10-10T03:34:38.018Z,4.55
2022-10-10T03:37:05.082Z,4.05
2022-10-10T03:39:32.309Z,4.30
2022-10-10T03:41:59.570Z,3.83
2022-10-10T03:44:26.771Z,3.72
2022-10-10T03:46:53.968Z,4.70
2022-10-10T03:49:21.402Z,3.67
2022-10-10T03:51:48.584Z,6.63
2022-10-10T03:54:15.746Z,7.68
2022-10-10T03:56:43.107Z,3.28
2022-10-10T03:59:10.408Z,5.45
2022-10-10T04:01:37.746Z,4.40
2022-10-10T04:04:05.446Z,7.57
2022-10-10T04:06:32.579Z,7.78
2022-10-10T04:08:59.622Z,5.28
2022-10-10T04:11:26.838Z,3.50
2022-10-10T04:13:54.037Z,7.00
2022-10-10T04:16:21.119Z,3.70
2022-10-10T04:18:48.327Z,6.13
2022-10-10T04:21:15.748Z,5.82
2022-10-10T04:23:42.891Z,4.53
2022-10-10T04:26:10.176Z,4.15
2022-10-10T04:28:37.349Z,5.53
2022-10-10T04:31:04.762Z,5.40
2022-10-10T04:33:31.957Z,5.22
2022-10-10T04:35:59.082Z,7.88
2022-10-10T04:38:26.339Z,6.63
2022-10-10T04:40:53.952Z,8.30
2022-10-10T04:43:21.225Z,5.25
2022-10-10T04:45:48.426Z,5.80
2022-10-10T04:48:15.662Z,7.10
2022-10-10T04:50:42.888Z,6.40
2022-10-10T04:53:10.422Z,4.75
2022-10-10T04:55:37.552Z,7.40
2022-10-10T04:58:04.758Z,5.57
2022-10-10T05:00:31.971Z,7.93
2022-10-10T05:02:59.078Z,6.60
2022-10-10T05:05:26.292Z,7.50
2022-10-10T05:07:55.631Z,5.97
2022-10-10T05:10:24.283Z,8.10
2022-10-10T05:12:52.873Z,4.68
2022-10-10T05:15:21.708Z,8.95
2022-10-10T05:17:48.797Z,7.93
2022-10-10T05:20:16.086Z,6.10
2022-10-10T05:22:43.142Z,5.15
2022-10-10T05:25:10.600Z,6.65
2022-10-10T05:27:37.930Z,6.63
2022-10-10T05:30:06.318Z,8.98
2022-10-10T05:32:33.511Z,6.22
2022-10-10T05:35:00.679Z,4.68
2022-10-10T05:37:27.812Z,11.10
2022-10-10T05:39:55.070Z,7.40
2022-10-10T05:42:22.481Z,4.35
2022-10-10T05:44:49.809Z,7.50
2022-10-10T05:47:17.645Z,6.65
2022-10-10T05:49:44.874Z,7.57
2022-10-10T05:52:12.077Z,8.00
2022-10-10T05:54:39.285Z,6.30
2022-10-10T05:57:06.508Z,5.00
2022-10-10T05:59:33.619Z,7.85
2022-10-10T06:02:01.198Z,6.15
2022-10-10T06:04:28.332Z,8.38
2022-10-10T06:06:55.394Z,4.82
2022-10-10T06:09:22.644Z,5.53
2022-10-10T06:11:50.287Z,5.28
2022-10-10T06:14:17.367Z,5.38
2022-10-10T06:16:46.106Z,5.05
2022-10-10T06:19:15.154Z,6.20
2022-10-10T06:21:42.452Z,4.10
2022-10-10T06:24:10.918Z,4.65
2022-10-10T06:26:38.139Z,5.53
2022-10-10T06:29:05.380Z,5.25
2022-10-10T06:31:32.598Z,4.38
2022-10-10T06:33:59.777Z,8.25
2022-10-10T06:36:26.880Z,6.90
2022-10-10T06:38:53.910Z,7.53
2022-10-10T06:41:21.106Z,5.95
2022-10-10T06:43:49.571Z,5.72
2022-10-10T06:46:16.864Z,6.38
2022-10-10T06:48:44.506Z,6.85
2022-10-10T06:51:15.652Z,9.95
2022-10-10T06:53:43.743Z,5.60
2022-10-10T06:56:24.938Z,6.30
2022-10-10T06:58:54.495Z,5.30
2022-10-10T07:01:23.048Z,7.53
2022-10-10T07:03:50.457Z,6.63
2022-10-10T07:06:18.418Z,9.63
2022-10-10T07:08:45.618Z,5.43
2022-10-10T07:11:12.778Z,6.28
2022-10-10T07:13:39.969Z,5.47
2022-10-10T07:16:07.452Z,6.25
2022-10-10T07:18:36.858Z,6.97
2022-10-10T07:21:05.320Z,5.07
2022-10-10T07:23:33.071Z,8.77
2022-10-10T07:26:02.644Z,7.88
2022-10-10T07:28:30.080Z,8.20
2022-10-10T07:31:03.097Z,8.25
2022-10-10T07:33:35.338Z,6.05
2022-10-10T07:36:02.382Z,7.22
2022-10-10T07:38:29.496Z,6.90
2022-10-10T07:40:56.568Z,6.85
2022-10-10T07:43:23.830Z,6.90
2022-10-10T07:45:50.943Z,5.40
2022-10-10T07:48:18.328Z,8.65
2022-10-10T07:50:45.475Z,7.63
2022-10-10T07:53:13.037Z,8.70
2022-10-10T07:55:44.110Z,4.90
2022-10-10T07:58:12.443Z,6.68
2022-10-10T08:00:42.110Z,5.65
2022-10-10T08:03:12.071Z,7.50
2022-10-10T08:05:42.104Z,7.53
2022-10-10T08:08:11.231Z,5.60
2022-10-10T08:10:38.484Z,5.10
2022-10-10T08:13:05.655Z,6.93
2022-10-10T08:15:34.047Z,6.50
2022-10-10T08:18:01.276Z,9.15
2022-10-10T08:20:28.313Z,6.10
2022-10-10T08:22:55.442Z,6.55
2022-10-10T08:25:22.903Z,5.60
2022-10-10T08:27:50.065Z,6.70
2022-10-10T08:30:17.173Z,7.78
2022-10-10T08:32:44.221Z,8.00
2022-10-10T08:35:11.285Z,6.03
2022-10-10T08:37:38.276Z,5.13
2022-10-10T08:40:05.980Z,6.25
2022-10-10T08:42:45.736Z,6.75
2022-10-10T08:45:19.927Z,6.38
2022-10-10T08:47:56.900Z,4.03
2022-10-10T08:50:33.317Z,8.32
2022-10-10T08:53:15.130Z,6.97
2022-10-10T08:55:46.350Z,9.95
2022-10-10T08:58:33.270Z,5.43
2022-10-10T09:01:14.612Z,5.18
2022-10-10T09:04:00.872Z,5.97
2022-10-10T09:06:46.660Z,9.13
2022-10-10T09:09:20.008Z,5.60
2022-10-10T09:11:53.106Z,8.40
2022-10-10T09:14:48.854Z,11.25
2022-10-10T09:17:37.959Z,8.05
2022-10-10T09:20:22.423Z,6.20
2022-10-10T09:23:00.765Z,6.05
2022-10-10T09:25:36.065Z,8.38
2022-10-10T09:28:14.527Z,9.85
2022-10-10T09:30:52.659Z,24.77
2022-10-10T09:33:36.881Z,11.82
2022-10-10T09:36:10.534Z,10.82
2022-10-10T09:39:14.261Z,8.57
2022-10-10T09:42:03.480Z,6.50
2022-10-10T09:44:31.893Z,11.88
2022-10-10T09:46:59.983Z,9.43
2022-10-10T09:49:27.382Z,7.50
2022-10-10T09:51:55.387Z,6.97
2022-10-10T09:54:23.640Z,8.80
2022-10-10T09:56:58.418Z,9.82
2022-10-10T09:59:45.969Z,11.88
2022-10-10T10:02:24.670Z,6.05
2022-10-10T10:04:52.928Z,8.40
2022-10-10T10:07:22.579Z,5.20
2022-10-10T10:10:11.942Z,9.30
2022-10-10T10:12:41.933Z,9.57
2022-10-10T10:15:35.359Z,5.88
2022-10-10T10:18:17.686Z,7.25
2022-10-10T10:20:47.685Z,7.78
2022-10-10T10:23:56.025Z,6.95
2022-10-10T10:26:27.505Z,7.25
2022-10-10T10:28:57.781Z,6.57
2022-10-10T10:31:32.712Z,6.35
2022-10-10T10:34:11.236Z,7.68
2022-10-10T10:36:40.995Z,8.35
2022-10-10T10:39:18.232Z,9.25
2022-10-10T10:41:50.786Z,7.28
2022-10-10T10:44:29.690Z,9.85
2022-10-10T10:47:11.890Z,6.90
2022-10-10T10:49:44.799Z,6.18
2022-10-10T10:52:26.998Z,6.72
2022-10-10T10:55:14.961Z,7.00
2022-10-10T11:05:23.759Z,7.93
2022-10-10T11:08:05.685Z,7.70
2022-10-10T11:10:41.502Z,15.77
2022-10-10T11:13:35.163Z,12.15
2022-10-10T11:16:54.518Z,7.75
2022-10-10T11:19:34.403Z,6.60
2022-10-10T11:22:08.531Z,12.77
2022-10-10T11:27:20.874Z,7.97
2022-10-10T11:30:08.555Z,6.63
2022-10-10T11:32:50.691Z,9.38
2022-10-10T11:35:26.847Z,8.55
2022-10-10T11:38:11.821Z,6.47
2022-10-10T11:40:54.020Z,6.45
2022-10-10T11:43:46.198Z,6.28
2022-10-10T11:46:42.124Z,4.22
2022-10-10T11:49:12.295Z,7.90
2022-10-10T11:52:21.281Z,7.43
2022-10-10T11:54:55.912Z,4.28
2022-10-10T11:57:33.247Z,7.13
2022-10-10T12:00:06.306Z,7.13
2022-10-10T12:02:37.223Z,4.28
2022-10-10T12:05:06.307Z,6.40
2022-10-10T12:07:43.389Z,8.65
2022-10-10T12:10:19.049Z,7.75
2022-10-10T12:12:49.222Z,3.80
2022-10-10T12:15:41.157Z,8.18
2022-10-10T12:18:30.106Z,7.75
2022-10-10T12:21:13.069Z,4.82
2022-10-10T12:23:43.064Z,6.40
2022-10-10T12:26:15.685Z,7.57
2022-10-10T12:29:02.072Z,4.75
2022-10-10T12:31:32.244Z,7.15
2022-10-10T12:34:12.100Z,6.88
2022-10-10T12:36:54.162Z,6.50
2022-10-10T12:39:21.258Z,7.63
2022-10-10T12:41:51.534Z,6.97
2022-10-10T12:44:26.528Z,6.65
2022-10-10T12:47:15.589Z,6.72
2022-10-10T12:50:00.312Z,6.60
2022-10-10T12:52:46.603Z,9.25
2022-10-10T12:55:47.274Z,8.77
2022-10-10T12:58:27.832Z,10.85
2022-10-10T13:01:26.727Z,10.20
2022-10-10T13:03:55.992Z,11.63
2022-10-10T13:06:28.557Z,9.32
2022-10-10T13:08:56.601Z,7.47
2022-10-10T13:11:23.739Z,6.25
2022-10-10T13:13:55.978Z,4.45
2022-10-10T13:16:33.607Z,4.63
2022-10-10T13:19:01.696Z,5.72
2022-10-10T13:21:34.617Z,4.78
2022-10-10T13:24:05.054Z,6.50
2022-10-10T13:26:43.745Z,6.72
2022-10-10T13:29:19.052Z,6.95
2022-10-10T13:31:46.538Z,8.27
2022-10-10T13:34:22.258Z,9.13
2022-10-10T13:36:55.178Z,12.30
2022-10-10T13:39:22.535Z,9.00
2022-10-10T13:41:50.979Z,5.97
2022-10-10T13:44:32.997Z,9.10
2022-10-10T13:47:20.527Z,6.88
2022-10-10T13:49:57.934Z,6.65
2022-10-10T13:52:25.170Z,12.82
2022-10-10T13:54:52.461Z,9.68
2022-10-10T13:57:21.518Z,8.77
2022-10-10T14:00:00.924Z,7.40
2022-10-10T14:02:37.214Z,5.65
2022-10-10T14:05:09.733Z,14.77
2022-10-10T14:07:37.494Z,6.78
2022-10-10T14:10:14.359Z,9.65
2022-10-10T14:12:53.929Z,7.40
2022-10-10T14:15:42.903Z,5.70
2022-10-10T14:18:24.794Z,13.45
2022-10-10T14:20:56.484Z,5.43
2022-10-10T14:23:23.618Z,9.80
2022-10-10T14:25:50.978Z,6.95
2022-10-10T14:28:29.773Z,6.72
2022-10-10T14:30:57.259Z,11.93
2022-10-10T14:33:25.915Z,7.43
2022-10-10T14:35:56.287Z,9.07
2022-10-10T14:38:23.658Z,7.63
2022-10-10T14:40:51.910Z,3.72
2022-10-10T14:43:23.809Z,11.20
2022-10-10T14:45:53.143Z,9.02
2022-10-10T14:48:20.493Z,7.30
2022-10-10T14:50:49.447Z,5.90
2022-10-10T14:53:17.228Z,8.35
2022-10-10T14:55:44.489Z,7.28
2022-10-10T14:58:17.729Z,4.38
2022-10-10T15:00:45.059Z,10.60
2022-10-10T15:03:12.580Z,11.27
2022-10-10T15:05:40.800Z,7.50
2022-10-10T15:08:08.382Z,6.45
2022-10-10T15:10:35.811Z,6.63
2022-10-10T15:13:04.044Z,7.07
2022-10-10T15:15:31.504Z,6.28
2022-10-10T15:17:59.422Z,8.88
2022-10-10T15:20:31.518Z,7.78
2022-10-10T15:23:04.940Z,9.35
2022-10-10T15:25:34.161Z,4.53
2022-10-10T15:28:03.172Z,5.88
2022-10-10T15:30:30.616Z,6.18
2022-10-10T15:32:57.739Z,5.75
2022-10-10T15:35:25.888Z,17.83
2022-10-10T15:37:53.024Z,4.57
2022-10-10T15:40:23.681Z,10.95
2022-10-10T15:42:51.538Z,8.43
2022-10-10T15:45:43.520Z,10.30
2022-10-10T15:48:06.588Z,8.60
2022-10-10T15:50:39.301Z,7.38
2022-10-10T15:53:06.644Z,6.50
2022-10-10T15:55:33.909Z,8.02
2022-10-10T15:58:03.579Z,11.15
2022-10-10T16:00:30.874Z,8.98
2022-10-10T16:02:57.975Z,7.40
2022-10-10T16:05:25.136Z,8.30
2022-10-10T16:07:52.780Z,8.68
2022-10-10T16:10:19.901Z,5.97
2022-10-10T16:12:47.100Z,8.23
2022-10-10T16:15:14.377Z,18.55
2022-10-10T16:17:41.548Z,13.32
2022-10-10T16:20:09.187Z,16.95
2022-10-10T16:22:36.732Z,9.32
2022-10-10T16:27:53.006Z,12.70
2022-10-10T16:30:23.757Z,16.60
2022-10-10T16:32:50.957Z,11.77
2022-10-10T16:35:18.263Z,13.60
2022-10-10T16:37:45.434Z,14.35
2022-10-10T16:40:12.922Z,10.98
2022-10-10T16:42:40.135Z,11.07
2022-10-10T16:45:07.956Z,12.70
2022-10-10T16:47:35.532Z,10.90
2022-10-10T16:50:03.134Z,14.93
2022-10-10T16:52:30.692Z,11.75
2022-10-10T16:54:58.090Z,15.70
2022-10-10T16:57:25.362Z,11.90
2022-10-10T16:59:52.528Z,14.70
2022-10-10T17:02:19.756Z,10.90
2022-10-10T17:04:46.971Z,14.65
2022-10-10T17:07:14.157Z,16.08
2022-10-10T17:09:41.405Z,11.90
2022-10-10T17:12:08.651Z,10.38
2022-10-10T17:14:35.790Z,8.07
2022-10-10T17:17:18.255Z,8.52
2022-10-10T17:19:45.635Z,9.43
2022-10-10T17:22:12.728Z,8.18
2022-10-10T17:24:40.032Z,13.13
2022-10-10T17:27:07.346Z,11.80
2022-10-10T17:29:34.686Z,8.75
2022-10-10T17:32:06.201Z,14.15
2022-10-10T17:34:34.253Z,9.90
2022-10-10T17:37:01.619Z,9.35
2022-10-10T17:39:28.956Z,10.95
2022-10-10T17:41:56.290Z,11.07
2022-10-10T17:44:23.680Z,10.73
2022-10-10T17:46:50.822Z,10.05
2022-10-10T17:49:19.570Z,12.75
2022-10-10T17:51:47.150Z,8.75
2022-10-10T17:54:14.413Z,11.30
2022-10-10T17:56:42.307Z,11.13
2022-10-10T17:59:10.374Z,7.25
2022-10-10T18:01:38.418Z,14.10
2022-10-10T18:04:05.892Z,20.77
2022-10-10T18:06:34.032Z,13.65
2022-10-10T18:09:01.682Z,9.68
2022-10-10T18:11:32.318Z,7.65
2022-10-10T18:14:02.526Z,10.15
2022-10-10T18:16:35.267Z,15.43
2022-10-10T18:19:07.669Z,11.98
2022-10-10T18:21:35.343Z,10.88
2022-10-10T18:24:02.605Z,15.05
2022-10-10T18:26:31.199Z,16.25
2022-10-10T18:28:58.555Z,11.57
2022-10-10T18:31:33.938Z,12.57
2022-10-10T18:34:02.355Z,9.73
2022-10-10T18:36:31.874Z,11.30
2022-10-10T18:39:04.023Z,12.77
2022-10-10T18:41:34.559Z,10.82
2022-10-10T18:44:04.699Z,9.88
2022-10-10T18:46:33.276Z,12.50
2022-10-10T18:49:02.428Z,11.70
2022-10-10T18:51:30.111Z,10.60
2022-10-10T18:54:03.220Z,13.55
2022-10-10T18:56:35.127Z,12.50
2022-10-10T18:59:04.647Z,10.50
2022-10-10T19:01:36.504Z,13.18
2022-10-10T19:04:05.965Z,12.30
2022-10-10T19:06:34.227Z,15.43
2022-10-10T19:09:02.414Z,11.98
2022-10-10T19:11:34.928Z,17.30
2022-10-10T19:14:05.827Z,13.82
2022-10-10T19:16:33.697Z,23.52
2022-10-10T19:19:01.973Z,24.17
2022-10-10T19:21:33.038Z,29.98
2022-10-10T19:24:06.785Z,26.23
2022-10-10T19:26:34.358Z,23.52
2022-10-10T19:29:06.584Z,25.90
2022-10-10T19:31:34.475Z,28.50
2022-10-10T19:34:02.029Z,29.00
2022-10-10T19:36:29.238Z,29.02
2022-10-10T19:38:59.273Z,26.00
2022-10-10T19:41:26.433Z,24.58
2022-10-10T19:43:53.847Z,22.35
2022-10-10T19:46:23.470Z,21.60
2022-10-10T19:48:51.400Z,19.13
2022-10-10T19:51:20.677Z,17.05
2022-10-10T19:53:48.008Z,14.50
2022-10-10T19:56:20.883Z,15.02
2022-10-10T19:58:49.483Z,13.93
2022-10-10T20:01:18.138Z,11.65
2022-10-10T20:03:47.185Z,11.50
2022-10-10T20:06:16.679Z,10.38
2022-10-10T20:08:44.379Z,11.32
2022-10-10T20:11:11.521Z,13.25
2022-10-10T20:13:38.788Z,6.55
2022-10-10T20:16:09.311Z,10.20
2022-10-10T20:18:39.001Z,15.75
2022-10-10T20:21:18.095Z,8.73
2022-10-10T20:23:47.535Z,13.32
2022-10-10T20:26:20.401Z,10.80
2022-10-10T20:28:49.657Z,7.35
2022-10-10T20:31:20.631Z,11.38
2022-10-10T20:33:53.075Z,7.32
2022-10-10T20:36:21.825Z,9.65
2022-10-10T20:38:57.740Z,13.75
2022-10-10T20:41:27.191Z,7.57
2022-10-10T20:43:59.516Z,10.40
2022-10-10T20:46:30.887Z,12.50
2022-10-10T20:48:59.520Z,5.30
2022-10-10T20:51:27.891Z,7.95
2022-10-10T20:54:01.640Z,8.60
2022-10-10T20:56:30.193Z,12.07
2022-10-10T20:58:57.490Z,8.82
2022-10-10T21:01:26.848Z,9.65
2022-10-10T21:03:55.365Z,8.77
2022-10-10T21:06:25.350Z,6.70
2022-10-10T21:08:54.028Z,9.45
2022-10-10T21:11:22.383Z,10.00
2022-10-10T21:13:57.425Z,9.90
2022-10-10T21:16:27.061Z,7.68
2022-10-10T21:18:58.012Z,6.60
2022-10-10T21:21:27.674Z,8.10
2022-10-10T21:23:56.462Z,10.32
2022-10-10T21:26:25.407Z,9.85
2022-10-10T21:28:53.542Z,15.38
2022-10-10T21:31:26.483Z,7.55
2022-10-10T21:33:54.377Z,11.30
2022-10-10T21:36:22.860Z,10.48
2022-10-10T21:38:50.079Z,17.98
2022-10-10T21:41:21.924Z,13.27
2022-10-10T21:43:53.083Z,15.52
2022-10-10T21:46:25.046Z,13.15
2022-10-10T21:48:52.824Z,11.65
2022-10-10T21:51:21.366Z,13.13
2022-10-10T21:53:48.884Z,8.20
2022-10-10T21:56:16.664Z,8.93
2022-10-10T21:58:48.093Z,9.98
2022-10-10T22:01:20.435Z,10.15
2022-10-10T22:03:49.859Z,10.13
2022-10-10T22:06:19.853Z,14.82
2022-10-10T22:08:48.488Z,11.57
2022-10-10T22:11:19.855Z,10.32
2022-10-10T22:13:47.494Z,13.23
2022-10-10T22:16:14.771Z,8.85
2022-10-10T22:18:42.230Z,9.20
2022-10-10T22:21:12.909Z,11.63
2022-10-10T22:23:40.355Z,11.73
2022-10-10T22:26:10.076Z,18.08
2022-10-10T22:28:37.475Z,7.97
2022-10-10T22:31:06.604Z,11.20
2022-10-10T22:33:34.215Z,13.82
2022-10-10T22:36:01.887Z,17.50
2022-10-10T22:38:29.377Z,11.38
2022-10-10T22:40:56.852Z,8.80
2022-10-10T22:43:27.012Z,13.02
2022-10-10T22:45:54.829Z,10.02
2022-10-10T22:48:22.062Z,6.50
2022-10-10T22:50:57.944Z,13.13
2022-10-10T22:53:25.066Z,9.55
2022-10-10T22:55:52.174Z,15.85
2022-10-10T22:58:19.372Z,12.77
2022-10-10T23:00:46.578Z,8.40
2022-10-10T23:03:13.871Z,11.52
2022-10-10T23:05:43.613Z,11.98
2022-10-10T23:08:11.709Z,12.27
2022-10-10T23:10:38.837Z,7.00
2022-10-10T23:13:05.989Z,12.65
2022-10-10T23:15:33.142Z,14.88
2022-10-10T23:18:00.332Z,8.68
2022-10-10T23:20:27.882Z,12.23
2022-10-10T23:22:55.658Z,12.23
2022-10-10T23:25:22.974Z,8.07
2022-10-10T23:27:50.311Z,8.98
2022-10-10T23:30:18.144Z,12.40
2022-10-10T23:32:45.420Z,11.07
2022-10-10T23:35:13.908Z,10.02
2022-10-10T23:37:42.117Z,9.88
2022-10-10T23:40:09.780Z,13.77
2022-10-10T23:42:36.961Z,14.60
2022-10-10T23:45:04.682Z,11.45
2022-10-10T23:47:32.078Z,9.52
2022-10-10T23:49:59.341Z,8.25
2022-10-10T23:52:26.630Z,11.27
2022-10-10T23:54:53.809Z,20.05
2022-10-10T23:57:21.034Z,8.32
2022-10-10T23:59:48.125Z,13.60
